createdAt,value
2023-04-20T00:00:29.838Z,1.22
2023-04-20T00:00:57.903Z,1.22
2023-04-20T00:01:30.429Z,1.22
2023-04-20T00:02:01.808Z,1.22
2023-04-20T00:02:34.785Z,1.11
2023-04-20T00:03:05.943Z,1.11
2023-04-20T00:03:38.641Z,1.11
2023-04-20T00:04:09.744Z,1.11
2023-04-20T00:04:42.443Z,1.11
2023-04-20T00:05:13.963Z,1.11
2023-04-20T00:05:46.377Z,1.00
2023-04-20T00:06:17.639Z,1.00
2023-04-20T00:06:50.506Z,1.00
2023-04-20T00:07:21.593Z,1.00
2023-04-20T00:07:54.500Z,1.00
2023-04-20T00:08:25.747Z,1.00
2023-04-20T00:08:58.377Z,1.00
2023-04-20T00:09:29.808Z,1.00
2023-04-20T00:10:02.765Z,1.00
2023-04-20T00:10:33.811Z,1.00
2023-04-20T00:11:06.327Z,.88
2023-04-20T00:11:37.762Z,.88
2023-04-20T00:12:10.661Z,.88
2023-04-20T00:12:41.592Z,.88
2023-04-20T00:13:14.537Z,.88
2023-04-20T00:13:45.742Z,.88
2023-04-20T00:14:18.607Z,.88
2023-04-20T00:14:49.623Z,.88
2023-04-20T00:15:23.585Z,.77
2023-04-20T00:15:53.754Z,.77
2023-04-20T00:16:26.402Z,.77
2023-04-20T00:16:57.812Z,.77
2023-04-20T00:17:30.758Z,.77
2023-04-20T00:18:01.796Z,.77
2023-04-20T00:18:35.373Z,.77
2023-04-20T00:19:05.798Z,.77
2023-04-20T00:19:38.545Z,.77
2023-04-20T00:20:09.966Z,.77
2023-04-20T00:20:42.523Z,.77
2023-04-20T00:21:13.824Z,.77
2023-04-20T00:21:46.488Z,.72
2023-04-20T00:22:17.759Z,.72
2023-04-20T00:22:53.544Z,.72
2023-04-20T00:23:21.629Z,.72
2023-04-20T00:23:54.371Z,.72
2023-04-20T00:24:25.655Z,.72
2023-04-20T00:24:58.520Z,.72
2023-04-20T00:25:29.873Z,.72
2023-04-20T00:26:02.624Z,.72
2023-04-20T00:26:33.831Z,.72
2023-04-20T00:27:06.537Z,.72
2023-04-20T00:27:37.770Z,.72
2023-04-20T00:28:10.424Z,.72
2023-04-20T00:28:41.827Z,.72
2023-04-20T00:29:14.514Z,.72
2023-04-20T00:29:45.680Z,.72
2023-04-20T00:30:19.479Z,.72
2023-04-20T00:30:49.800Z,.72
2023-04-20T00:31:22.689Z,.72
2023-04-20T00:31:53.751Z,.72
2023-04-20T00:32:26.326Z,.61
2023-04-20T00:32:57.766Z,.61
2023-04-20T00:33:30.610Z,.72
2023-04-20T00:34:01.918Z,.72
2023-04-20T00:34:34.337Z,.72
2023-04-20T00:35:05.935Z,.72
2023-04-20T00:35:38.401Z,.72
2023-04-20T00:36:09.638Z,.72
2023-04-20T00:36:25.775Z,.72
2023-04-20T00:36:57.821Z,.61
2023-04-20T00:37:29.657Z,.61
2023-04-20T00:38:02.550Z,.61
2023-04-20T00:38:33.779Z,.61
2023-04-20T00:39:06.401Z,.61
2023-04-20T00:39:37.707Z,.61
2023-04-20T00:40:10.632Z,.61
2023-04-20T00:40:41.753Z,.61
2023-04-20T00:41:15.292Z,.61
2023-04-20T00:41:45.732Z,.61
2023-04-20T00:42:18.635Z,.61
2023-04-20T00:42:49.590Z,.61
2023-04-20T00:43:22.518Z,.61
2023-04-20T00:43:53.745Z,.61
2023-04-20T00:44:26.426Z,.61
2023-04-20T00:44:57.708Z,.61
2023-04-20T00:45:31.899Z,.61
2023-04-20T00:46:01.947Z,.61
2023-04-20T00:46:34.578Z,.50
2023-04-20T00:47:05.744Z,.50
2023-04-20T00:47:39.473Z,.50
2023-04-20T00:48:09.617Z,.50
2023-04-20T00:48:42.432Z,.50
2023-04-20T00:49:13.793Z,.50
2023-04-20T00:49:46.654Z,.50
2023-04-20T00:50:17.990Z,.50
2023-04-20T00:50:50.525Z,.50
2023-04-20T00:51:21.766Z,.50
2023-04-20T00:51:54.747Z,.50
2023-04-20T00:52:25.694Z,.50
2023-04-20T00:52:58.802Z,.50
2023-04-20T00:53:29.884Z,.50
2023-04-20T00:54:02.560Z,.50
2023-04-20T00:54:33.755Z,.50
2023-04-20T00:55:06.836Z,.50
2023-04-20T00:55:37.921Z,.50
2023-04-20T00:56:10.402Z,.50
2023-04-20T00:56:41.745Z,.50
2023-04-20T00:57:14.742Z,.50
2023-04-20T00:57:45.660Z,.50
2023-04-20T00:58:18.569Z,.38
2023-04-20T00:58:49.811Z,.38
2023-04-20T00:59:22.383Z,.38
2023-04-20T00:59:53.727Z,.38
2023-04-20T01:00:27.662Z,.38
2023-04-20T01:00:57.546Z,.38
2023-04-20T01:01:30.430Z,.38
2023-04-20T01:02:01.927Z,.38
2023-04-20T01:02:34.687Z,.38
2023-04-20T01:03:05.881Z,.38
2023-04-20T01:03:38.581Z,.38
2023-04-20T01:04:09.823Z,.38
2023-04-20T01:04:42.442Z,.38
2023-04-20T01:05:13.914Z,.38
2023-04-20T01:05:46.640Z,.38
2023-04-20T01:06:17.650Z,.38
2023-04-20T01:06:50.428Z,.38
2023-04-20T01:07:21.760Z,.38
2023-04-20T01:07:54.597Z,.27
2023-04-20T01:08:25.598Z,.27
2023-04-20T01:08:58.512Z,.27
2023-04-20T01:09:29.713Z,.27
2023-04-20T01:10:02.908Z,.27
2023-04-20T01:10:33.652Z,.27
2023-04-20T01:11:06.540Z,.27
2023-04-20T01:11:37.837Z,.27
2023-04-20T01:12:10.471Z,.27
2023-04-20T01:12:41.641Z,.27
2023-04-20T01:13:14.556Z,.27
2023-04-20T01:13:45.846Z,.27
2023-04-20T01:14:18.509Z,.27
2023-04-20T01:14:49.770Z,.27
2023-04-20T01:15:23.818Z,.27
2023-04-20T01:15:53.838Z,.27
2023-04-20T01:16:26.577Z,.22
2023-04-20T01:16:57.949Z,.22
2023-04-20T01:17:30.826Z,.27
2023-04-20T01:18:01.776Z,.27
2023-04-20T01:18:34.692Z,.27
2023-04-20T01:19:05.897Z,.27
2023-04-20T01:19:38.426Z,.27
2023-04-20T01:20:09.902Z,.27
2023-04-20T01:20:42.524Z,.22
2023-04-20T01:21:13.806Z,.22
2023-04-20T01:21:46.530Z,.22
2023-04-20T01:22:17.829Z,.22
2023-04-20T01:22:50.707Z,.22
2023-04-20T01:23:21.648Z,.22
2023-04-20T01:23:54.512Z,.22
2023-04-20T01:24:25.831Z,.22
2023-04-20T01:24:58.617Z,.22
2023-04-20T01:25:29.992Z,.22
2023-04-20T01:26:02.805Z,.22
2023-04-20T01:26:33.811Z,.22
2023-04-20T01:27:06.543Z,.22
2023-04-20T01:27:37.688Z,.22
2023-04-20T01:28:10.618Z,.22
2023-04-20T01:28:41.876Z,.22
2023-04-20T01:29:14.599Z,.22
2023-04-20T01:29:45.669Z,.22
2023-04-20T01:30:19.619Z,.11
2023-04-20T01:30:49.815Z,.11
2023-04-20T01:31:22.727Z,.11
2023-04-20T01:31:53.926Z,.11
2023-04-20T01:32:26.644Z,.11
2023-04-20T01:32:57.759Z,.11
2023-04-20T01:33:30.850Z,.11
2023-04-20T01:34:01.761Z,.11
2023-04-20T01:34:34.501Z,.11
2023-04-20T01:35:05.922Z,.11
2023-04-20T01:35:39.762Z,.11
2023-04-20T01:36:09.672Z,.11
2023-04-20T01:36:42.451Z,.11
2023-04-20T01:37:13.760Z,.11
2023-04-20T01:37:46.900Z,.22
2023-04-20T01:38:17.680Z,.22
2023-04-20T01:38:50.492Z,.11
2023-04-20T01:39:21.737Z,.11
2023-04-20T01:39:54.413Z,.22
2023-04-20T01:40:25.926Z,.22
2023-04-20T01:40:58.525Z,.22
2023-04-20T01:41:29.695Z,.22
2023-04-20T01:42:02.562Z,.22
2023-04-20T01:42:33.844Z,.22
2023-04-20T01:43:06.494Z,.22
2023-04-20T01:43:37.689Z,.22
2023-04-20T01:44:10.588Z,.22
2023-04-20T01:44:41.874Z,.22
2023-04-20T01:45:15.285Z,.22
2023-04-20T01:45:45.830Z,.22
2023-04-20T01:46:18.765Z,.22
2023-04-20T01:46:49.723Z,.22
2023-04-20T01:47:22.498Z,.22
2023-04-20T01:47:53.729Z,.22
2023-04-20T01:48:26.576Z,.27
2023-04-20T01:48:57.714Z,.27
2023-04-20T01:49:30.640Z,.27
2023-04-20T01:50:02.266Z,.27
2023-04-20T01:50:34.350Z,.27
2023-04-20T01:51:05.819Z,.27
2023-04-20T01:51:38.760Z,.27
2023-04-20T01:52:09.850Z,.27
2023-04-20T01:52:42.633Z,.27
2023-04-20T01:53:13.811Z,.27
2023-04-20T01:53:46.689Z,.27
2023-04-20T01:54:17.652Z,.27
2023-04-20T01:54:50.408Z,.27
2023-04-20T01:55:22.033Z,.27
2023-04-20T01:55:54.618Z,.27
2023-04-20T01:56:25.641Z,.27
2023-04-20T01:56:58.816Z,.27
2023-04-20T01:57:29.756Z,.27
2023-04-20T01:58:02.549Z,.27
2023-04-20T01:58:33.752Z,.27
2023-04-20T01:59:06.580Z,.27
2023-04-20T01:59:37.899Z,.27
2023-04-20T02:00:12.534Z,.27
2023-04-20T02:00:41.918Z,.27
2023-04-20T02:01:14.779Z,.27
2023-04-20T02:01:45.702Z,.27
2023-04-20T02:02:18.839Z,.38
2023-04-20T02:02:49.848Z,.38
2023-04-20T02:03:22.893Z,.27
2023-04-20T02:03:53.982Z,.27
2023-04-20T02:04:26.843Z,.27
2023-04-20T02:04:57.807Z,.27
2023-04-20T02:05:30.958Z,.27
2023-04-20T02:06:01.787Z,.27
2023-04-20T02:06:34.726Z,.27
2023-04-20T02:07:05.614Z,.27
2023-04-20T02:07:38.790Z,.27
2023-04-20T02:08:09.925Z,.27
2023-04-20T02:08:42.774Z,.27
2023-04-20T02:09:13.674Z,.27
2023-04-20T02:09:46.714Z,.27
2023-04-20T02:10:18.046Z,.27
2023-04-20T02:10:50.586Z,.27
2023-04-20T02:11:21.765Z,.27
2023-04-20T02:11:54.734Z,.27
2023-04-20T02:12:25.635Z,.27
2023-04-20T02:12:58.470Z,.27
2023-04-20T02:13:29.745Z,.27
2023-04-20T02:14:02.749Z,.27
2023-04-20T02:14:33.694Z,.27
2023-04-20T02:15:07.822Z,.27
2023-04-20T02:15:37.845Z,.27
2023-04-20T02:16:10.438Z,.27
2023-04-20T02:16:41.685Z,.27
2023-04-20T02:17:14.684Z,.27
2023-04-20T02:17:45.852Z,.27
2023-04-20T02:18:18.614Z,.27
2023-04-20T02:18:49.684Z,.27
2023-04-20T02:19:22.593Z,.27
2023-04-20T02:19:53.639Z,.27
2023-04-20T02:20:26.750Z,.27
2023-04-20T02:20:57.873Z,.27
2023-04-20T02:21:30.845Z,.27
2023-04-20T02:22:01.724Z,.27
2023-04-20T02:22:34.752Z,.27
2023-04-20T02:23:05.828Z,.27
2023-04-20T02:23:38.598Z,.27
2023-04-20T02:24:09.822Z,.27
2023-04-20T02:24:42.864Z,.27
2023-04-20T02:25:14.129Z,.27
2023-04-20T02:25:46.309Z,.27
2023-04-20T02:26:17.757Z,.27
2023-04-20T02:26:50.814Z,.27
2023-04-20T02:27:21.755Z,.27
2023-04-20T02:27:54.783Z,.22
2023-04-20T02:28:25.851Z,.22
2023-04-20T02:28:58.871Z,.22
2023-04-20T02:29:29.766Z,.22
2023-04-20T02:30:04.061Z,.22
2023-04-20T02:30:34.014Z,.22
2023-04-20T02:31:06.617Z,.22
2023-04-20T02:31:37.952Z,.22
2023-04-20T02:32:10.797Z,.22
2023-04-20T02:32:42.061Z,.22
2023-04-20T02:33:14.891Z,.22
2023-04-20T02:33:45.835Z,.22
2023-04-20T02:34:18.671Z,.22
2023-04-20T02:34:49.763Z,.22
2023-04-20T02:35:22.983Z,.22
2023-04-20T02:35:53.911Z,.22
2023-04-20T02:36:26.937Z,.22
2023-04-20T02:36:57.781Z,.22
2023-04-20T02:37:30.782Z,.22
2023-04-20T02:38:01.864Z,.22
2023-04-20T02:38:34.651Z,.22
2023-04-20T02:39:05.851Z,.22
2023-04-20T02:39:38.674Z,.11
2023-04-20T02:40:09.959Z,.11
2023-04-20T02:40:25.801Z,.11
2023-04-20T02:40:57.964Z,.11
2023-04-20T02:41:29.791Z,.11
2023-04-20T02:42:02.664Z,.11
2023-04-20T02:42:33.787Z,.11
2023-04-20T02:43:06.559Z,.11
2023-04-20T02:43:37.709Z,.11
2023-04-20T02:44:10.534Z,.11
2023-04-20T02:44:41.871Z,0
2023-04-20T02:45:15.425Z,0
2023-04-20T02:45:45.865Z,0
2023-04-20T02:46:18.841Z,0
2023-04-20T02:46:49.831Z,0
2023-04-20T02:47:22.485Z,0
2023-04-20T02:47:53.916Z,0
2023-04-20T02:48:26.711Z,0
2023-04-20T02:48:57.734Z,0
2023-04-20T02:49:30.514Z,0
2023-04-20T02:50:02.249Z,0
2023-04-20T02:50:34.833Z,0
2023-04-20T02:51:05.788Z,0
2023-04-20T02:51:38.546Z,0
2023-04-20T02:52:09.885Z,0
2023-04-20T02:52:42.566Z,0
2023-04-20T02:53:13.657Z,0
2023-04-20T02:53:46.560Z,0
2023-04-20T02:54:17.682Z,0
2023-04-20T02:54:50.596Z,0
2023-04-20T02:55:22.145Z,0
2023-04-20T02:55:54.801Z,0
2023-04-20T02:56:25.705Z,0
2023-04-20T02:56:58.430Z,0
2023-04-20T02:57:29.894Z,0
2023-04-20T02:58:02.740Z,0
2023-04-20T02:58:33.831Z,0
2023-04-20T02:59:06.456Z,0
2023-04-20T02:59:37.810Z,0
2023-04-20T03:00:12.008Z,0
2023-04-20T03:00:41.768Z,0
2023-04-20T03:01:14.654Z,0
2023-04-20T03:01:45.664Z,0
2023-04-20T03:02:18.698Z,0
2023-04-20T03:02:49.884Z,0
2023-04-20T03:03:22.539Z,0
2023-04-20T03:03:53.944Z,0
2023-04-20T03:04:27.111Z,0
2023-04-20T03:04:57.802Z,0
2023-04-20T03:05:33.951Z,0
2023-04-20T03:06:01.998Z,-.11
2023-04-20T03:06:36.228Z,-.11
2023-04-20T03:07:05.608Z,-.11
2023-04-20T03:07:38.625Z,-.11
2023-04-20T03:08:09.971Z,-.11
2023-04-20T03:08:42.602Z,-.11
2023-04-20T03:09:13.628Z,-.11
2023-04-20T03:09:47.152Z,-.11
2023-04-20T03:10:18.143Z,-.11
2023-04-20T03:10:50.341Z,-.11
2023-04-20T03:11:21.758Z,-.11
2023-04-20T03:12:09.945Z,-.11
2023-04-20T03:12:41.745Z,-.11
2023-04-20T03:13:13.684Z,-.11
2023-04-20T03:13:45.684Z,-.11
2023-04-20T03:14:17.645Z,-.11
2023-04-20T03:14:49.871Z,-.11
2023-04-20T03:15:22.645Z,-.11
2023-04-20T03:15:54.746Z,-.11
2023-04-20T03:16:25.794Z,-.11
2023-04-20T03:16:59.448Z,-.11
2023-04-20T03:17:29.730Z,-.11
2023-04-20T03:18:02.669Z,-.11
2023-04-20T03:18:33.861Z,-.11
2023-04-20T03:19:06.367Z,-.11
2023-04-20T03:19:37.697Z,-.11
2023-04-20T03:20:10.657Z,-.11
2023-04-20T03:20:41.628Z,-.11
2023-04-20T03:21:14.620Z,-.11
2023-04-20T03:21:45.715Z,-.11
2023-04-20T03:22:18.790Z,-.11
2023-04-20T03:22:49.757Z,-.11
2023-04-20T03:23:22.639Z,-.11
2023-04-20T03:23:53.600Z,-.11
2023-04-20T03:24:26.563Z,-.11
2023-04-20T03:24:57.710Z,-.11
2023-04-20T03:25:30.893Z,-.11
2023-04-20T03:26:02.056Z,-.11
2023-04-20T03:26:34.543Z,-.11
2023-04-20T03:27:05.735Z,-.11
2023-04-20T03:27:38.663Z,-.11
2023-04-20T03:28:09.884Z,-.11
2023-04-20T03:28:42.439Z,-.11
2023-04-20T03:29:13.734Z,-.11
2023-04-20T03:29:46.681Z,-.11
2023-04-20T03:30:18.633Z,-.11
2023-04-20T03:30:52.755Z,-.22
2023-04-20T03:31:21.850Z,-.22
2023-04-20T03:31:54.515Z,-.11
2023-04-20T03:32:25.637Z,-.11
2023-04-20T03:32:58.723Z,-.22
2023-04-20T03:33:29.927Z,-.22
2023-04-20T03:34:02.640Z,-.22
2023-04-20T03:34:33.606Z,-.22
2023-04-20T03:35:06.771Z,-.22
2023-04-20T03:35:37.656Z,-.22
2023-04-20T03:36:10.491Z,-.22
2023-04-20T03:36:41.737Z,-.22
2023-04-20T03:37:14.676Z,-.22
2023-04-20T03:37:45.697Z,-.22
2023-04-20T03:38:18.608Z,-.27
2023-04-20T03:38:49.853Z,-.27
2023-04-20T03:39:22.425Z,-.27
2023-04-20T03:39:53.758Z,-.27
2023-04-20T03:40:26.796Z,-.27
2023-04-20T03:40:57.674Z,-.27
2023-04-20T03:41:30.668Z,-.27
2023-04-20T03:42:01.843Z,-.27
2023-04-20T03:42:34.756Z,-.27
2023-04-20T03:43:05.664Z,-.27
2023-04-20T03:43:38.715Z,-.27
2023-04-20T03:44:09.884Z,-.27
2023-04-20T03:44:42.407Z,-.27
2023-04-20T03:45:14.619Z,-.27
2023-04-20T03:45:46.929Z,-.27
2023-04-20T03:46:17.920Z,-.27
2023-04-20T03:46:50.444Z,-.38
2023-04-20T03:47:21.792Z,-.38
2023-04-20T03:47:54.664Z,-.38
2023-04-20T03:48:25.682Z,-.38
2023-04-20T03:48:58.611Z,-.38
2023-04-20T03:49:29.747Z,-.38
2023-04-20T03:50:03.017Z,-.38
2023-04-20T03:50:33.711Z,-.38
2023-04-20T03:51:06.611Z,-.38
2023-04-20T03:51:37.862Z,-.38
2023-04-20T03:52:10.539Z,-.38
2023-04-20T03:52:41.707Z,-.38
2023-04-20T03:53:14.687Z,-.38
2023-04-20T03:53:45.834Z,-.38
2023-04-20T03:54:18.506Z,-.38
2023-04-20T03:54:49.707Z,-.38
2023-04-20T03:55:22.752Z,-.38
2023-04-20T03:55:53.743Z,-.38
2023-04-20T03:56:26.591Z,-.38
2023-04-20T03:56:57.837Z,-.38
2023-04-20T03:57:30.625Z,-.38
2023-04-20T03:58:01.758Z,-.38
2023-04-20T03:58:34.735Z,-.38
2023-04-20T03:59:05.823Z,-.38
2023-04-20T03:59:38.545Z,-.38
2023-04-20T04:00:11.228Z,-.38
2023-04-20T04:00:42.562Z,-.38
2023-04-20T04:01:13.704Z,-.38
2023-04-20T04:01:47.579Z,-.38
2023-04-20T04:02:17.975Z,-.38
2023-04-20T04:02:50.638Z,-.38
2023-04-20T04:03:21.937Z,-.38
2023-04-20T04:03:54.869Z,-.38
2023-04-20T04:04:26.110Z,-.38
2023-04-20T04:04:59.458Z,-.38
2023-04-20T04:05:30.066Z,-.38
2023-04-20T04:06:04.726Z,-.38
2023-04-20T04:06:33.693Z,-.38
2023-04-20T04:07:06.578Z,-.38
2023-04-20T04:07:37.853Z,-.38
2023-04-20T04:08:10.719Z,-.38
2023-04-20T04:08:41.684Z,-.38
2023-04-20T04:09:14.678Z,-.27
2023-04-20T04:09:45.775Z,-.27
2023-04-20T04:10:18.775Z,-.27
2023-04-20T04:10:49.797Z,-.27
2023-04-20T04:11:22.763Z,-.27
2023-04-20T04:11:53.969Z,-.27
2023-04-20T04:12:26.853Z,-.27
2023-04-20T04:12:57.799Z,-.27
2023-04-20T04:13:32.016Z,-.27
2023-04-20T04:14:01.747Z,-.27
2023-04-20T04:14:34.608Z,-.27
2023-04-20T04:15:07.000Z,-.27
2023-04-20T04:15:38.732Z,-.27
2023-04-20T04:16:09.719Z,-.27
2023-04-20T04:16:42.600Z,-.27
2023-04-20T04:17:13.892Z,-.27
2023-04-20T04:17:47.430Z,-.22
2023-04-20T04:18:17.698Z,-.22
2023-04-20T04:18:50.641Z,-.22
2023-04-20T04:19:21.903Z,-.22
2023-04-20T04:19:54.681Z,-.22
2023-04-20T04:20:26.397Z,-.22
2023-04-20T04:20:58.771Z,-.22
2023-04-20T04:21:29.986Z,-.22
2023-04-20T04:22:02.725Z,-.22
2023-04-20T04:22:34.042Z,-.22
2023-04-20T04:23:07.003Z,-.22
2023-04-20T04:23:37.956Z,-.22
2023-04-20T04:24:11.004Z,-.22
2023-04-20T04:24:42.221Z,-.22
2023-04-20T04:25:14.980Z,-.11
2023-04-20T04:25:45.972Z,-.11
2023-04-20T04:26:18.764Z,-.11
2023-04-20T04:26:50.217Z,-.11
2023-04-20T04:27:23.084Z,-.11
2023-04-20T04:27:54.117Z,-.11
2023-04-20T04:28:26.799Z,-.11
2023-04-20T04:28:57.896Z,-.11
2023-04-20T04:29:30.808Z,-.11
2023-04-20T04:30:03.584Z,-.11
2023-04-20T04:30:34.860Z,-.11
2023-04-20T04:31:06.161Z,-.11
2023-04-20T04:31:39.926Z,0
2023-04-20T04:32:09.987Z,0
2023-04-20T04:32:42.844Z,0
2023-04-20T04:33:14.019Z,0
2023-04-20T04:33:47.820Z,0
2023-04-20T04:34:18.130Z,0
2023-04-20T04:34:51.418Z,0
2023-04-20T04:35:22.353Z,0
2023-04-20T04:35:54.811Z,0
2023-04-20T04:36:26.050Z,0
2023-04-20T04:36:58.761Z,.11
2023-04-20T04:37:30.144Z,.11
2023-04-20T04:38:02.938Z,.11
2023-04-20T04:38:34.024Z,.11
2023-04-20T04:39:06.749Z,.11
2023-04-20T04:39:38.292Z,.11
2023-04-20T04:40:11.043Z,.22
2023-04-20T04:40:42.065Z,.22
2023-04-20T04:41:14.896Z,.22
2023-04-20T04:41:45.972Z,.22
2023-04-20T04:42:18.785Z,.22
2023-04-20T04:42:50.075Z,.22
2023-04-20T04:43:22.960Z,.22
2023-04-20T04:43:53.973Z,.22
2023-04-20T04:44:26.736Z,.27
2023-04-20T04:44:58.079Z,.27
2023-04-20T04:45:31.881Z,.27
2023-04-20T04:46:02.097Z,.27
2023-04-20T04:46:34.821Z,.27
2023-04-20T04:47:06.168Z,.27
2023-04-20T04:47:38.956Z,.27
2023-04-20T04:48:10.095Z,.27
2023-04-20T04:48:42.795Z,.27
2023-04-20T04:49:14.175Z,.27
2023-04-20T04:49:48.783Z,.27
2023-04-20T04:50:18.423Z,.27
2023-04-20T04:50:51.533Z,.38
2023-04-20T04:51:21.941Z,.38
2023-04-20T04:51:54.775Z,.38
2023-04-20T04:52:26.118Z,.38
2023-04-20T04:52:58.768Z,.38
2023-04-20T04:53:30.047Z,.38
2023-04-20T04:54:02.797Z,.38
2023-04-20T04:54:34.217Z,.38
2023-04-20T04:55:06.924Z,.38
2023-04-20T04:55:38.410Z,.38
2023-04-20T04:56:10.864Z,.38
2023-04-20T04:56:41.905Z,.38
2023-04-20T04:57:14.933Z,.38
2023-04-20T04:57:46.053Z,.38
2023-04-20T04:58:18.697Z,.38
2023-04-20T04:58:49.940Z,.38
2023-04-20T04:59:22.774Z,.38
2023-04-20T04:59:54.152Z,.38
2023-04-20T05:00:27.730Z,.50
2023-04-20T05:00:58.122Z,.50
2023-04-20T05:01:30.965Z,.50
2023-04-20T05:02:02.165Z,.50
2023-04-20T05:02:34.920Z,.50
2023-04-20T05:03:06.111Z,.50
2023-04-20T05:03:39.123Z,.50
2023-04-20T05:04:10.301Z,.50
2023-04-20T05:04:26.318Z,.50
2023-04-20T05:04:57.901Z,.50
2023-04-20T05:05:30.360Z,.50
2023-04-20T05:06:02.332Z,.50
2023-04-20T05:06:33.948Z,.61
2023-04-20T05:07:06.831Z,.61
2023-04-20T05:07:38.019Z,.61
2023-04-20T05:08:10.930Z,.61
2023-04-20T05:08:41.955Z,.61
2023-04-20T05:08:58.079Z,.61
2023-04-20T05:09:29.904Z,.61
2023-04-20T05:10:02.429Z,.61
2023-04-20T05:10:34.007Z,.61
2023-04-20T05:11:06.027Z,.72
2023-04-20T05:11:37.964Z,.72
2023-04-20T05:12:09.966Z,.72
2023-04-20T05:12:42.046Z,.72
2023-04-20T05:13:13.918Z,.72
2023-04-20T05:13:46.769Z,.72
2023-04-20T05:14:18.010Z,.72
2023-04-20T05:14:50.777Z,.72
2023-04-20T05:15:22.958Z,.77
2023-04-20T05:15:55.057Z,.77
2023-04-20T05:16:26.293Z,.77
2023-04-20T05:16:58.830Z,.77
2023-04-20T05:17:30.032Z,.77
2023-04-20T05:18:02.954Z,.77
2023-04-20T05:18:34.215Z,.88
2023-04-20T05:19:06.781Z,.88
2023-04-20T05:19:38.040Z,.88
2023-04-20T05:20:11.179Z,.88
2023-04-20T05:20:42.020Z,.88
2023-04-20T05:21:14.780Z,.88
2023-04-20T05:21:46.095Z,1.00
2023-04-20T05:22:18.891Z,1.00
2023-04-20T05:22:50.080Z,1.00
2023-04-20T05:23:22.941Z,1.00
2023-04-20T05:23:54.180Z,1.00
2023-04-20T05:24:26.837Z,1.00
2023-04-20T05:24:58.119Z,1.00
2023-04-20T05:25:31.307Z,1.00
2023-04-20T05:26:02.184Z,1.00
2023-04-20T05:26:34.938Z,1.00
2023-04-20T05:27:06.137Z,1.11
2023-04-20T05:27:38.875Z,1.11
2023-04-20T05:28:10.073Z,1.11
2023-04-20T05:28:42.912Z,1.11
2023-04-20T05:29:14.187Z,1.11
2023-04-20T05:29:47.005Z,1.11
2023-04-20T05:30:21.533Z,1.22
2023-04-20T05:30:51.246Z,1.22
2023-04-20T05:31:22.122Z,1.22
2023-04-20T05:31:54.937Z,1.22
2023-04-20T05:32:26.102Z,1.27
2023-04-20T05:32:59.121Z,1.27
2023-04-20T05:33:29.972Z,1.27
2023-04-20T05:34:02.709Z,1.27
2023-04-20T05:34:34.038Z,1.27
2023-04-20T05:35:06.981Z,1.27
2023-04-20T05:35:37.976Z,1.38
2023-04-20T05:36:11.023Z,1.38
2023-04-20T05:36:42.118Z,1.38
2023-04-20T05:37:15.025Z,1.38
2023-04-20T05:37:45.990Z,1.50
2023-04-20T05:38:18.943Z,1.50
2023-04-20T05:38:49.969Z,1.50
2023-04-20T05:39:22.904Z,1.50
2023-04-20T05:39:54.137Z,1.61
2023-04-20T05:40:27.300Z,1.61
2023-04-20T05:40:58.006Z,1.72
2023-04-20T05:41:31.056Z,1.72
2023-04-20T05:42:02.257Z,1.72
2023-04-20T05:42:37.676Z,1.72
2023-04-20T05:43:06.002Z,1.77
2023-04-20T05:43:39.106Z,1.77
2023-04-20T05:44:10.109Z,1.88
2023-04-20T05:44:42.842Z,1.88
2023-04-20T05:45:14.914Z,2.00
2023-04-20T05:45:47.299Z,2.00
2023-04-20T05:46:17.974Z,2.11
2023-04-20T05:46:51.711Z,2.11
2023-04-20T05:47:22.183Z,2.27
2023-04-20T05:47:56.515Z,2.27
2023-04-20T05:48:27.848Z,2.38
2023-04-20T05:48:58.865Z,2.38
2023-04-20T05:49:30.110Z,2.50
2023-04-20T05:50:03.240Z,2.50
2023-04-20T05:50:34.076Z,2.72
2023-04-20T05:51:07.096Z,2.72
2023-04-20T05:51:38.032Z,2.88
2023-04-20T05:52:10.948Z,2.88
2023-04-20T05:52:42.080Z,3.11
2023-04-20T05:53:14.908Z,3.11
2023-04-20T05:53:46.017Z,3.22
2023-04-20T05:54:18.948Z,3.22
2023-04-20T05:54:50.082Z,3.38
2023-04-20T05:55:23.306Z,3.38
2023-04-20T05:55:54.055Z,3.61
2023-04-20T05:56:26.832Z,3.61
2023-04-20T05:56:58.473Z,3.72
2023-04-20T05:57:36.220Z,3.72
2023-04-20T05:58:02.503Z,3.88
2023-04-20T05:58:34.544Z,3.88
2023-04-20T05:59:06.314Z,4.00
2023-04-20T05:59:38.414Z,4.00
2023-04-20T06:00:11.787Z,4.11
2023-04-20T06:00:42.099Z,4.11
2023-04-20T06:00:59.385Z,4.27
2023-04-20T06:01:30.017Z,4.27
2023-04-20T06:02:03.074Z,4.50
2023-04-20T06:02:34.225Z,4.50
2023-04-20T06:03:07.167Z,4.61
2023-04-20T06:03:38.333Z,4.61
2023-04-20T06:04:11.243Z,4.72
2023-04-20T06:04:42.137Z,4.72
2023-04-20T06:04:58.375Z,4.72
2023-04-20T06:05:30.457Z,4.88
2023-04-20T06:06:02.268Z,4.88
2023-04-20T06:06:34.144Z,5.00
2023-04-20T06:07:05.930Z,5.00
2023-04-20T06:07:40.135Z,5.11
2023-04-20T06:08:10.178Z,5.11
2023-04-20T06:08:42.768Z,5.27
2023-04-20T06:09:14.085Z,5.27
2023-04-20T06:09:46.875Z,5.38
2023-04-20T06:10:18.432Z,5.38
2023-04-20T06:10:50.883Z,5.50
2023-04-20T06:11:22.543Z,5.50
2023-04-20T06:11:55.272Z,5.61
2023-04-20T06:12:26.803Z,5.61
2023-04-20T06:12:59.149Z,5.72
2023-04-20T06:13:30.108Z,5.72
2023-04-20T06:14:03.082Z,5.77
2023-04-20T06:14:34.463Z,5.77
2023-04-20T06:15:08.397Z,5.88
2023-04-20T06:15:38.492Z,5.88
2023-04-20T06:16:11.357Z,6.00
2023-04-20T06:16:42.443Z,6.00
2023-04-20T06:17:15.533Z,6.11
2023-04-20T06:17:46.339Z,6.11
2023-04-20T06:18:19.303Z,6.22
2023-04-20T06:18:50.478Z,6.22
2023-04-20T06:19:22.877Z,6.27
2023-04-20T06:19:54.468Z,6.27
2023-04-20T06:20:27.512Z,6.38
2023-04-20T06:20:58.421Z,6.38
2023-04-20T06:21:32.045Z,6.50
2023-04-20T06:22:02.530Z,6.50
2023-04-20T06:22:35.133Z,6.50
2023-04-20T06:23:06.421Z,6.50
2023-04-20T06:23:40.052Z,6.61
2023-04-20T06:24:10.239Z,6.61
2023-04-20T06:24:26.535Z,6.72
2023-04-20T06:24:58.347Z,6.72
2023-04-20T06:25:30.748Z,6.77
2023-04-20T06:26:02.718Z,6.77
2023-04-20T06:26:34.334Z,6.77
2023-04-20T06:27:07.201Z,6.77
2023-04-20T06:27:38.427Z,6.88
2023-04-20T06:28:11.248Z,6.88
2023-04-20T06:28:42.308Z,7.00
2023-04-20T06:29:15.243Z,7.00
2023-04-20T06:29:46.433Z,7.00
2023-04-20T06:30:20.983Z,7.00
2023-04-20T06:30:50.593Z,7.11
2023-04-20T06:31:24.383Z,7.11
2023-04-20T06:31:54.034Z,7.11
2023-04-20T06:32:26.885Z,7.11
2023-04-20T06:32:58.210Z,7.11
2023-04-20T06:33:30.961Z,7.11
2023-04-20T06:34:02.062Z,7.11
2023-04-20T06:34:35.226Z,7.11
2023-04-20T06:35:06.499Z,7.11
2023-04-20T06:35:39.602Z,7.11
2023-04-20T06:36:10.081Z,7.00
2023-04-20T06:36:42.851Z,7.00
2023-04-20T06:37:14.130Z,7.00
2023-04-20T06:37:47.032Z,7.00
2023-04-20T06:38:18.043Z,6.88
2023-04-20T06:38:50.861Z,6.88
2023-04-20T06:39:22.232Z,6.77
2023-04-20T06:39:54.789Z,6.77
2023-04-20T06:40:26.492Z,6.77
2023-04-20T06:41:00.372Z,6.77
2023-04-20T06:41:30.447Z,6.72
2023-04-20T06:42:03.326Z,6.72
2023-04-20T06:42:34.400Z,6.72
2023-04-20T06:43:07.109Z,6.72
2023-04-20T06:43:38.434Z,6.72
2023-04-20T06:44:12.383Z,6.72
2023-04-20T06:44:42.561Z,6.72
2023-04-20T06:45:16.204Z,6.72
2023-04-20T06:45:46.529Z,6.61
2023-04-20T06:46:19.341Z,6.61
2023-04-20T06:46:50.347Z,6.72
2023-04-20T06:47:23.402Z,6.72
2023-04-20T06:47:54.574Z,6.72
2023-04-20T06:48:31.438Z,6.72
2023-04-20T06:48:58.540Z,6.77
2023-04-20T06:49:32.312Z,6.77
2023-04-20T06:50:02.854Z,6.88
2023-04-20T06:50:35.170Z,6.88
2023-04-20T06:51:06.339Z,7.00
2023-04-20T06:51:39.499Z,7.00
2023-04-20T06:52:10.499Z,7.00
2023-04-20T06:52:43.288Z,7.00
2023-04-20T06:53:14.523Z,7.22
2023-04-20T06:53:47.139Z,7.22
2023-04-20T06:54:18.284Z,7.22
2023-04-20T06:54:51.064Z,7.22
2023-04-20T06:55:22.752Z,7.27
2023-04-20T06:55:55.208Z,7.27
2023-04-20T06:56:26.409Z,7.38
2023-04-20T06:56:59.260Z,7.38
2023-04-20T06:57:30.354Z,7.50
2023-04-20T06:58:03.410Z,7.50
2023-04-20T06:58:34.582Z,7.61
2023-04-20T06:59:07.131Z,7.61
2023-04-20T06:59:38.351Z,7.61
2023-04-20T07:00:13.006Z,7.61
2023-04-20T07:00:42.363Z,7.61
2023-04-20T07:01:15.144Z,7.61
2023-04-20T07:01:46.673Z,7.72
2023-04-20T07:02:19.746Z,7.72
2023-04-20T07:02:50.552Z,7.77
2023-04-20T07:03:23.340Z,7.77
2023-04-20T07:03:55.036Z,7.77
2023-04-20T07:04:27.082Z,7.77
2023-04-20T07:04:58.566Z,7.88
2023-04-20T07:05:31.515Z,7.88
2023-04-20T07:06:02.534Z,8.00
2023-04-20T07:06:35.506Z,8.00
2023-04-20T07:07:06.596Z,8.22
2023-04-20T07:07:39.333Z,8.22
2023-04-20T07:08:10.568Z,8.27
2023-04-20T07:08:43.320Z,8.27
2023-04-20T07:09:14.531Z,8.50
2023-04-20T07:09:48.303Z,8.50
2023-04-20T07:10:18.828Z,8.61
2023-04-20T07:10:51.312Z,8.61
2023-04-20T07:11:22.353Z,8.72
2023-04-20T07:11:55.150Z,8.72
2023-04-20T07:12:26.508Z,8.72
2023-04-20T07:12:59.379Z,8.72
2023-04-20T07:13:33.411Z,8.72